createdAt,value
2023-04-22T00:00:09.860Z,100792.81
2023-04-22T00:02:38.912Z,100791.94
2023-04-22T00:05:07.979Z,100790.25
2023-04-22T00:07:36.096Z,100791.16
2023-04-22T00:10:04.123Z,100778.84
2023-04-22T00:12:34.421Z,100783.25
2023-04-22T00:15:02.374Z,100790.25
2023-04-22T00:17:30.248Z,100785.84
2023-04-22T00:19:58.381Z,100786.78
2023-04-22T00:22:26.515Z,100785.94
2023-04-22T00:24:54.427Z,100771.06
2023-04-22T00:27:22.371Z,100764.09
2023-04-22T00:29:51.611Z,100768.59
2023-04-22T00:32:19.950Z,100767.72
2023-04-22T00:34:47.830Z,100774.06
2023-04-22T00:37:15.897Z,100763.63
2023-04-22T00:39:43.936Z,100760.25
2023-04-22T00:42:11.774Z,100751.66
2023-04-22T00:44:39.656Z,100739.38
2023-04-22T00:47:09.121Z,100738.53
2023-04-22T00:49:37.325Z,100732.38
2023-04-22T00:52:05.347Z,100724.50
2023-04-22T00:54:33.359Z,100722.69
2023-04-22T00:57:02.245Z,100720.00
2023-04-22T00:59:30.207Z,100719.94
2023-04-22T01:01:58.094Z,100714.59
2023-04-22T01:04:27.416Z,100716.28
2023-04-22T01:06:55.524Z,100718.97
2023-04-22T01:09:23.523Z,100718.09
2023-04-22T01:11:51.422Z,100717.22
2023-04-22T01:14:19.294Z,100719.03
2023-04-22T01:16:47.231Z,100719.84
2023-04-22T01:19:15.132Z,100709.25
2023-04-22T01:21:45.020Z,100709.19
2023-04-22T01:24:14.326Z,100709.19
2023-04-22T01:26:42.220Z,100712.66
2023-04-22T01:29:10.232Z,100704.78
2023-04-22T01:31:38.127Z,100702.94
2023-04-22T01:34:06.039Z,100702.88
2023-04-22T01:36:34.145Z,100708.19
2023-04-22T01:39:02.031Z,100715.38
2023-04-22T01:41:31.378Z,100706.63
2023-04-22T01:43:59.549Z,100716.41
2023-04-22T01:46:27.558Z,100707.66
2023-04-22T01:48:55.614Z,100700.81
2023-04-22T01:51:23.615Z,100703.47
2023-04-22T01:53:51.661Z,100700.84
2023-04-22T01:56:19.626Z,100690.25
2023-04-22T01:58:48.873Z,100698.16
2023-04-22T02:01:16.782Z,100684.06
2023-04-22T02:03:44.771Z,100661.88
2023-04-22T02:06:12.663Z,100686.22
2023-04-22T02:08:40.578Z,100688.03
2023-04-22T02:11:08.402Z,100685.53
2023-04-22T02:16:32.768Z,100683.00
2023-04-22T02:19:00.716Z,100678.72
2023-04-22T02:21:29.816Z,100673.56
2023-04-22T02:23:57.689Z,100688.56
2023-04-22T02:26:26.022Z,100682.47
2023-04-22T02:28:53.865Z,100688.72
2023-04-22T02:31:21.849Z,100680.09
2023-04-22T02:33:51.126Z,100673.19
2023-04-22T02:36:18.993Z,100672.63
2023-04-22T02:38:47.124Z,100669.38
2023-04-22T02:41:15.020Z,100670.38
2023-04-22T02:43:46.154Z,100665.13
2023-04-22T02:46:16.130Z,100660.75
2023-04-22T02:48:44.165Z,100657.19
2023-04-22T02:51:13.453Z,100662.44
2023-04-22T02:53:41.299Z,100662.38
2023-04-22T02:56:09.656Z,100653.66
2023-04-22T02:58:37.544Z,100665.22
2023-04-22T03:01:05.499Z,100660.97
2023-04-22T03:03:33.686Z,100649.50
2023-04-22T03:06:01.690Z,100659.13
2023-04-22T03:08:30.956Z,100652.03
2023-04-22T03:10:58.812Z,100649.38
2023-04-22T03:13:26.685Z,100649.38
2023-04-22T03:15:54.539Z,100650.19
2023-04-22T03:18:22.440Z,100644.84
2023-04-22T03:20:50.622Z,100639.41
2023-04-22T03:23:18.532Z,100629.66
2023-04-22T03:25:47.878Z,100629.56
2023-04-22T03:28:15.739Z,100627.72
2023-04-22T03:30:43.620Z,100621.53
2023-04-22T03:33:12.259Z,100619.66
2023-04-22T03:35:40.177Z,100623.09
2023-04-22T03:38:08.457Z,100617.81
2023-04-22T03:40:36.387Z,100618.63
2023-04-22T03:43:05.672Z,100618.63
2023-04-22T03:45:33.571Z,100604.66
2023-04-22T03:48:01.464Z,100610.03
2023-04-22T03:50:29.373Z,100618.91
2023-04-22T03:52:57.265Z,100606.72
2023-04-22T03:55:25.138Z,100609.53
2023-04-22T03:57:53.046Z,100603.47
2023-04-22T04:00:22.322Z,100598.22
2023-04-22T04:02:50.287Z,100595.69
2023-04-22T04:05:18.636Z,100595.78
2023-04-22T04:07:46.799Z,100596.94
2023-04-22T04:10:14.650Z,100593.56
2023-04-22T04:12:42.547Z,100593.72
2023-04-22T04:15:10.743Z,100590.34
2023-04-22T04:17:40.094Z,100593.84
2023-04-22T04:20:08.859Z,100582.28
2023-04-22T04:22:37.680Z,100580.34
2023-04-22T04:25:06.765Z,100581.09
2023-04-22T04:27:35.009Z,100581.75
2023-04-22T04:30:04.381Z,100579.78
2023-04-22T04:32:34.254Z,100580.59
2023-04-22T04:35:03.691Z,100565.53
2023-04-22T04:37:31.549Z,100558.38
2023-04-22T04:39:59.911Z,100555.59
2023-04-22T04:42:27.798Z,100560.75
2023-04-22T04:44:58.415Z,100555.38
2023-04-22T04:47:26.341Z,100553.63
2023-04-22T04:49:54.383Z,100554.56
2023-04-22T04:52:23.637Z,100555.44
2023-04-22T04:54:51.483Z,100549.22
2023-04-22T04:57:19.383Z,100549.06
2023-04-22T04:59:47.220Z,100548.91
2023-04-22T05:02:15.247Z,100548.00
2023-04-22T05:04:43.334Z,100544.34
2023-04-22T05:07:11.355Z,100546.06
2023-04-22T05:09:40.848Z,100545.16
2023-04-22T05:12:08.950Z,100546.03
2023-04-22T05:14:36.786Z,100543.25
2023-04-22T05:17:04.655Z,100537.88
2023-04-22T05:19:32.568Z,100537.66
2023-04-22T05:22:00.602Z,100528.66
2023-04-22T05:24:28.468Z,100529.31
2023-04-22T05:26:58.493Z,100530.91
2023-04-22T05:29:26.445Z,100534.25
2023-04-22T05:31:54.409Z,100527.94
2023-04-22T05:34:22.388Z,100526.03
2023-04-22T05:36:50.260Z,100521.38
2023-04-22T05:39:18.180Z,100523.84
2023-04-22T05:41:47.117Z,100531.59
2023-04-22T05:44:17.644Z,100532.31
2023-04-22T05:46:45.571Z,100532.16
2023-04-22T05:49:13.467Z,100528.44
2023-04-22T05:51:41.337Z,100524.88
2023-04-22T05:54:09.268Z,100518.53
2023-04-22T05:56:37.189Z,100510.53
2023-04-22T05:59:05.063Z,100518.44
2023-04-22T06:01:34.276Z,100520.94
2023-04-22T06:04:02.320Z,100519.75
2023-04-22T06:06:31.666Z,100522.09
2023-04-22T06:08:59.668Z,100517.56
2023-04-22T06:11:28.197Z,100517.56
2023-04-22T06:13:56.090Z,100521.91
2023-04-22T06:16:24.112Z,100522.84
2023-04-22T06:18:53.393Z,100526.53
2023-04-22T06:21:21.434Z,100524.06
2023-04-22T06:23:49.291Z,100530.22
2023-04-22T06:26:17.162Z,100522.28
2023-04-22T06:28:45.071Z,100523.06
2023-04-22T06:31:13.026Z,100520.25
2023-04-22T06:33:40.971Z,100520.94
2023-04-22T06:36:10.686Z,100532.16
2023-04-22T06:38:38.525Z,100531.06
2023-04-22T06:41:06.568Z,100536.13
2023-04-22T06:43:34.417Z,100534.19
2023-04-22T06:46:02.399Z,100534.78
2023-04-22T06:48:30.305Z,100533.59
2023-04-22T06:50:58.184Z,100535.94
2023-04-22T06:53:27.452Z,100538.41
2023-04-22T06:55:55.930Z,100537.22
2023-04-22T06:58:23.829Z,100537.91
2023-04-22T07:00:51.712Z,100533.22
2023-04-22T07:03:19.745Z,100531.16
2023-04-22T07:05:48.658Z,100530.84
2023-04-22T07:08:16.580Z,100525.22
2023-04-22T07:10:45.930Z,100521.31
2023-04-22T07:13:13.817Z,100512.94
2023-04-22T07:15:41.712Z,100516.88
2023-04-22T07:18:09.731Z,100513.56
2023-04-22T07:20:37.556Z,100519.97
2023-04-22T07:23:05.505Z,100512.94
2023-04-22T07:25:33.386Z,100510.41
2023-04-22T07:28:02.725Z,100512.25
2023-04-22T07:30:30.824Z,100511.38
2023-04-22T07:32:58.766Z,100503.44
2023-04-22T07:35:28.582Z,100498.09
2023-04-22T07:37:56.494Z,100489.31
2023-04-22T07:40:24.350Z,100484.13
2023-04-22T07:42:52.409Z,100480.06
2023-04-22T07:45:21.684Z,100478.97
2023-04-22T07:47:49.604Z,100480.53
2023-04-22T07:50:17.508Z,100480.28
2023-04-22T07:52:45.419Z,100483.41
2023-04-22T07:55:13.387Z,100481.47
2023-04-22T07:57:41.365Z,100482.09
2023-04-22T08:00:10.156Z,100487.16
2023-04-22T08:02:39.559Z,100474.53
2023-04-22T08:05:08.554Z,100475.06
2023-04-22T08:07:36.457Z,100472.16
2023-04-22T08:10:05.007Z,100469.16
2023-04-22T08:12:32.967Z,100470.56
2023-04-22T08:15:01.033Z,100462.47
2023-04-22T08:17:28.954Z,100457.84
2023-04-22T08:19:58.304Z,100459.41
2023-04-22T08:22:27.623Z,100461.66
2023-04-22T08:24:55.564Z,100457.56
2023-04-22T08:27:23.602Z,100464.94
2023-04-22T08:29:51.553Z,100454.47
2023-04-22T08:32:20.180Z,100457.19
2023-04-22T08:37:19.656Z,100454.75
2023-04-22T08:39:47.596Z,100459.47
2023-04-22T08:42:15.955Z,100446.91
2023-04-22T08:44:43.962Z,100449.53
2023-04-22T08:47:12.063Z,100447.59
2023-04-22T08:49:40.073Z,100448.47
2023-04-22T08:52:09.526Z,100447.53
2023-04-22T08:54:38.811Z,100445.22
2023-04-22T08:57:07.435Z,100452.03
2023-04-22T08:59:35.531Z,100446.47
2023-04-22T09:02:03.442Z,100438.16
2023-04-22T09:04:31.558Z,100432.81
2023-04-22T09:06:59.638Z,100437.22
2023-04-22T09:09:27.569Z,100425.66
2023-04-22T09:11:58.043Z,100428.78
2023-04-22T09:14:26.231Z,100436.63
2023-04-22T09:16:54.227Z,100425.06
2023-04-22T09:19:24.708Z,100435.88
2023-04-22T09:21:54.687Z,100428.34
2023-04-22T09:24:22.656Z,100430.75
2023-04-22T09:26:50.725Z,100431.22
2023-04-22T09:29:20.441Z,100422.53
2023-04-22T09:31:50.510Z,100428.25
2023-04-22T09:34:18.409Z,100426.06
2023-04-22T09:36:46.926Z,100423.09
2023-04-22T09:39:14.934Z,100429.31
2023-04-22T09:41:42.987Z,100427.09
2023-04-22T09:44:12.377Z,100436.44
2023-04-22T09:46:42.817Z,100444.13
2023-04-22T09:49:10.704Z,100437.59
2023-04-22T09:51:41.812Z,100437.38
2023-04-22T09:54:10.546Z,100410.16
2023-04-22T09:56:42.704Z,100437.31
2023-04-22T09:59:10.572Z,100434.75
2023-04-22T10:01:39.567Z,100432.19
2023-04-22T10:04:09.933Z,100426.84
2023-04-22T10:06:37.968Z,100426.84
2023-04-22T10:09:08.296Z,100437.53
2023-04-22T10:11:37.687Z,100429.53
2023-04-22T10:14:05.679Z,100434.75
2023-04-22T10:16:34.093Z,100436.50
2023-04-22T10:19:03.390Z,100440.00
2023-04-22T10:21:32.998Z,100431.91
2023-04-22T10:24:01.229Z,100435.16
2023-04-22T10:26:42.761Z,100435.69
2023-04-22T10:29:10.911Z,100435.31
2023-04-22T10:31:39.195Z,100429.50
2023-04-22T10:34:11.012Z,100423.53
2023-04-22T10:39:32.211Z,100425.94
2023-04-22T10:42:15.306Z,100421.00
2023-04-22T10:44:50.667Z,100427.78
2023-04-22T10:47:28.713Z,100423.94
2023-04-22T10:50:19.783Z,100413.75
2023-04-22T10:52:49.292Z,100406.50
2023-04-22T10:55:18.600Z,100410.19
2023-04-22T10:57:47.482Z,100411.34
2023-04-22T11:00:45.871Z,100411.31
2023-04-22T11:03:20.814Z,100414.25
2023-04-22T11:05:48.895Z,100415.41
2023-04-22T11:08:24.677Z,100420.44
2023-04-22T11:10:55.275Z,100419.47
2023-04-22T11:13:23.217Z,100418.72
2023-04-22T11:15:54.122Z,100412.03
2023-04-22T11:18:22.842Z,100410.13
2023-04-22T11:20:51.144Z,100414.31
2023-04-22T11:23:24.004Z,100414.13
2023-04-22T11:25:57.629Z,100411.25
2023-04-22T11:28:25.621Z,100416.69
2023-04-22T11:30:53.778Z,100412.50
2023-04-22T11:33:21.791Z,100416.22
2023-04-22T11:35:50.580Z,100408.72
2023-04-22T11:38:18.481Z,100416.00
2023-04-22T11:40:47.497Z,100406.75
2023-04-22T11:43:18.669Z,100402.63
2023-04-22T11:45:46.791Z,100403.59
2023-04-22T11:48:15.627Z,100390.31
2023-04-22T11:50:44.253Z,100397.47
2023-04-22T11:53:16.111Z,100398.34
2023-04-22T11:55:44.532Z,100398.56
2023-04-22T11:58:13.458Z,100388.16
2023-04-22T12:00:43.545Z,100394.75
2023-04-22T12:03:15.392Z,100387.88
2023-04-22T12:05:44.387Z,100392.53
2023-04-22T12:08:13.028Z,100379.28
2023-04-22T12:10:44.525Z,100382.94
2023-04-22T12:13:18.451Z,100388.81
2023-04-22T12:15:47.738Z,100389.13
2023-04-22T12:18:16.092Z,100391.88
2023-04-22T12:20:46.916Z,100392.38
2023-04-22T12:23:15.631Z,100383.31
2023-04-22T12:25:43.623Z,100390.75
2023-04-22T12:28:11.785Z,100393.91
2023-04-22T12:30:39.670Z,100397.59
2023-04-22T12:33:09.584Z,100389.69
2023-04-22T12:35:37.687Z,100388.00
2023-04-22T12:38:05.646Z,100390.38
2023-04-22T12:40:33.652Z,100379.41
2023-04-22T12:43:03.531Z,100381.69
2023-04-22T12:45:31.412Z,100381.50
2023-04-22T12:47:59.537Z,100390.19
2023-04-22T12:50:28.978Z,100383.81
2023-04-22T12:52:56.890Z,100380.25
2023-04-22T12:55:24.833Z,100377.59
2023-04-22T12:57:52.694Z,100378.16
2023-04-22T13:00:20.713Z,100379.41
2023-04-22T13:02:49.324Z,100368.88
2023-04-22T13:05:17.463Z,100373.81
2023-04-22T13:07:50.731Z,100368.63
2023-04-22T13:10:28.572Z,100364.03
2023-04-22T13:13:06.461Z,100365.03
2023-04-22T13:15:43.719Z,100363.78
2023-04-22T13:18:11.706Z,100370.88
2023-04-22T13:20:39.908Z,100364.81
2023-04-22T13:23:09.758Z,100360.75
2023-04-22T13:25:37.719Z,100354.06
2023-04-22T13:28:05.830Z,100358.09
2023-04-22T13:30:34.353Z,100353.06
2023-04-22T13:33:02.552Z,100350.69
2023-04-22T13:35:30.535Z,100354.72
2023-04-22T13:37:58.485Z,100344.41
2023-04-22T13:40:27.772Z,100338.44
2023-04-22T13:42:55.728Z,100329.53
2023-04-22T13:45:23.679Z,100336.88
2023-04-22T13:47:52.270Z,100333.56
2023-04-22T13:50:20.242Z,100323.75
2023-04-22T13:52:48.476Z,100325.56
2023-04-22T13:55:16.779Z,100325.72
2023-04-22T13:57:46.463Z,100332.25
2023-04-22T14:00:15.120Z,100328.69
2023-04-22T14:02:43.098Z,100320.50
2023-04-22T14:05:11.474Z,100324.97
2023-04-22T14:07:39.344Z,100321.56
2023-04-22T14:10:12.103Z,100318.97
2023-04-22T14:12:40.083Z,100312.53
2023-04-22T14:15:11.596Z,100320.47
2023-04-22T14:17:39.635Z,100312.34
2023-04-22T14:20:08.920Z,100315.13
2023-04-22T14:22:36.954Z,100314.47
2023-04-22T14:25:05.093Z,100300.88
2023-04-22T14:27:33.323Z,100310.88
2023-04-22T14:30:02.035Z,100312.69
2023-04-22T14:32:31.411Z,100303.84
2023-04-22T14:34:59.353Z,100311.09
2023-04-22T14:37:27.212Z,100304.91
2023-04-22T14:39:55.113Z,100304.31
2023-04-22T14:42:23.229Z,100291.94
2023-04-22T14:44:51.129Z,100292.88
2023-04-22T14:47:19.012Z,100285.63
2023-04-22T14:49:48.288Z,100287.25
2023-04-22T14:52:16.232Z,100286.28
2023-04-22T14:54:44.141Z,100288.63
2023-04-22T14:57:12.423Z,100283.41
2023-04-22T14:59:40.652Z,100281.41
2023-04-22T15:02:09.363Z,100282.16
2023-04-22T15:04:37.346Z,100284.81
2023-04-22T15:07:07.579Z,100278.91
2023-04-22T15:09:35.639Z,100281.78
2023-04-22T15:12:05.118Z,100273.69
2023-04-22T15:14:33.916Z,100269.09
2023-04-22T15:17:01.891Z,100265.66
2023-04-22T15:19:30.142Z,100265.66
2023-04-22T15:21:58.042Z,100252.69
2023-04-22T15:24:27.304Z,100255.88
2023-04-22T15:26:55.359Z,100260.19
2023-04-22T15:29:23.665Z,100245.47
2023-04-22T15:31:53.845Z,100249.78
2023-04-22T15:34:22.666Z,100250.25
2023-04-22T15:36:50.618Z,100253.69
2023-04-22T15:39:18.507Z,100254.09
2023-04-22T15:41:47.779Z,100251.78
2023-04-22T15:44:16.171Z,100241.09
2023-04-22T15:46:44.434Z,100232.16
2023-04-22T15:49:12.386Z,100231.00
2023-04-22T15:51:40.299Z,100227.06
2023-04-22T15:54:09.010Z,100221.44
2023-04-22T15:56:36.925Z,100217.72
2023-04-22T15:59:06.160Z,100211.38
2023-04-22T16:01:34.147Z,100214.78
2023-04-22T16:04:02.255Z,100209.38
2023-04-22T16:06:30.904Z,100205.72
2023-04-22T16:08:58.773Z,100210.31
2023-04-22T16:11:26.722Z,100208.69
2023-04-22T16:13:54.671Z,100201.81
2023-04-22T16:16:25.247Z,100202.84
2023-04-22T16:18:53.172Z,100198.56
2023-04-22T16:21:21.092Z,100195.03
2023-04-22T16:23:49.896Z,100180.09
2023-04-22T16:26:18.026Z,100195.66
2023-04-22T16:28:46.888Z,100200.19
2023-04-22T16:31:14.920Z,100188.97
2023-04-22T16:33:44.361Z,100197.06
2023-04-22T16:36:12.338Z,100185.75
2023-04-22T16:38:40.300Z,100186.97
2023-04-22T16:41:09.131Z,100181.28
2023-04-22T16:43:38.566Z,100182.31
2023-04-22T16:46:08.350Z,100185.38
2023-04-22T16:48:36.844Z,100179.47
2023-04-22T16:51:06.258Z,100174.34
2023-04-22T16:53:34.234Z,100165.75
2023-04-22T16:56:02.162Z,100168.53
2023-04-22T16:58:30.383Z,100151.56
2023-04-22T17:00:58.302Z,100149.94
2023-04-22T17:03:26.979Z,100154.22
2023-04-22T17:05:55.660Z,100146.22
2023-04-22T17:08:25.057Z,100146.97
2023-04-22T17:10:52.966Z,100148.78
2023-04-22T17:13:20.942Z,100141.94
2023-04-22T17:15:48.864Z,100138.50
2023-04-22T17:18:16.807Z,100140.41
2023-04-22T17:20:44.737Z,100134.13
2023-04-22T17:23:12.681Z,100133.28
2023-04-22T17:25:41.968Z,100134.97
2023-04-22T17:28:11.347Z,100131.53
2023-04-22T17:30:39.437Z,100121.94
2023-04-22T17:33:07.329Z,100120.97
2023-04-22T17:35:35.262Z,100111.25
2023-04-22T17:38:03.160Z,100115.00
2023-04-22T17:40:31.039Z,100114.91
2023-04-22T17:43:00.305Z,100114.91
2023-04-22T17:45:28.330Z,100105.16
2023-04-22T17:47:56.302Z,100105.38
2023-04-22T17:50:24.610Z,100105.44
2023-04-22T17:52:52.523Z,100097.56
2023-04-22T17:55:20.658Z,100097.56
2023-04-22T17:57:48.514Z,100089.66
2023-04-22T18:00:19.029Z,100089.66
2023-04-22T18:02:47.097Z,100086.41
2023-04-22T18:05:15.177Z,100089.09
2023-04-22T18:07:43.079Z,100087.28
2023-04-22T18:10:12.023Z,100077.56
2023-04-22T18:12:40.009Z,100078.41
2023-04-22T18:15:08.698Z,100069.50
2023-04-22T18:17:38.270Z,100074.03
2023-04-22T18:20:17.155Z,100073.09
2023-04-22T18:22:46.846Z,100073.19
2023-04-22T18:25:14.742Z,100067.00
2023-04-22T18:27:42.677Z,100063.47
2023-04-22T18:30:11.130Z,100065.19
2023-04-22T18:32:41.236Z,100067.66
2023-04-22T18:35:09.764Z,100062.25
2023-04-22T18:37:37.799Z,100070.25
2023-04-22T18:40:07.102Z,100065.75
2023-04-22T18:42:35.037Z,100066.59
2023-04-22T18:45:04.544Z,100060.34
2023-04-22T18:47:32.898Z,100058.44
2023-04-22T18:50:02.288Z,100055.75
2023-04-22T18:52:30.208Z,100053.97
2023-04-22T18:54:58.140Z,100057.38
2023-04-22T18:57:26.462Z,100050.91
2023-04-22T18:59:55.040Z,100047.19
2023-04-22T19:02:22.972Z,100042.50
2023-04-22T19:04:51.019Z,100035.34
2023-04-22T19:07:20.399Z,100037.06
2023-04-22T19:09:48.353Z,100032.69
2023-04-22T19:12:19.028Z,100035.34
2023-04-22T19:14:48.334Z,100027.47
2023-04-22T19:17:16.512Z,100030.97
2023-04-22T19:19:45.455Z,100036.59
2023-04-22T19:22:13.693Z,100034.03
2023-04-22T19:24:43.064Z,100034.22
2023-04-22T19:27:12.520Z,100036.13
2023-04-22T19:29:41.550Z,100045.16
2023-04-22T19:32:09.815Z,100048.63
2023-04-22T19:34:37.947Z,100035.66
2023-04-22T19:37:06.090Z,100043.38
2023-04-22T19:39:33.990Z,100053.09
2023-04-22T19:42:04.000Z,100046.91
2023-04-22T19:44:31.981Z,100047.84
2023-04-22T19:47:00.082Z,100053.28
2023-04-22T19:49:31.077Z,100044.63
2023-04-22T19:51:59.025Z,100038.53
2023-04-22T19:54:30.175Z,100041.19
2023-04-22T19:56:59.021Z,100053.66
2023-04-22T19:59:31.085Z,100052.03
2023-04-22T20:01:59.484Z,100053.97
2023-04-22T20:04:28.191Z,100053.09
2023-04-22T20:06:57.118Z,100054.06
2023-04-22T20:09:25.033Z,100052.34
2023-04-22T20:11:53.600Z,100047.75
2023-04-22T20:14:21.714Z,100054.81
2023-04-22T20:16:51.589Z,100046.91
2023-04-22T20:19:20.226Z,100058.44
2023-04-22T20:21:48.589Z,100053.28
2023-04-22T20:24:19.485Z,100049.78
2023-04-22T20:26:48.655Z,100047.94
2023-04-22T20:29:17.198Z,100052.34
2023-04-22T20:31:45.346Z,100039.75
2023-04-22T20:34:14.797Z,100049.84
2023-04-22T20:36:49.562Z,100026.91
2023-04-22T20:39:17.511Z,100047.75
2023-04-22T20:41:45.389Z,100055.00
2023-04-22T20:44:14.195Z,100052.50
2023-04-22T20:46:42.131Z,100049.25
2023-04-22T20:49:10.048Z,100048.50
2023-04-22T20:51:39.293Z,100025.53
2023-04-22T20:54:14.694Z,100045.53
2023-04-22T20:56:53.829Z,100050.09
2023-04-22T20:59:21.756Z,100045.91
2023-04-22T21:01:49.676Z,100045.25
2023-04-22T21:04:17.656Z,100051.53
2023-04-22T21:06:47.413Z,100054.19
2023-04-22T21:09:15.376Z,100057.72
2023-04-22T21:11:43.728Z,100062.84
2023-04-22T21:14:12.017Z,100055.53
2023-04-22T21:16:41.162Z,100058.78
2023-04-22T21:19:09.211Z,100054.88
2023-04-22T21:21:37.169Z,100057.25
2023-04-22T21:24:07.479Z,100059.81
2023-04-22T21:26:35.355Z,100056.31
2023-04-22T21:29:03.678Z,100065.06
2023-04-22T21:31:31.640Z,100061.53
2023-04-22T21:34:00.521Z,100065.84
2023-04-22T21:36:28.412Z,100062.16
2023-04-22T21:38:56.829Z,100043.94
2023-04-22T21:41:26.341Z,100067.97
2023-04-22T21:43:54.229Z,100066.81
2023-04-22T21:46:24.353Z,100069.19
2023-04-22T21:48:52.305Z,100060.97
2023-04-22T21:51:20.237Z,100065.28
2023-04-22T21:53:48.205Z,100067.00
2023-04-22T21:56:16.089Z,100067.94
2023-04-22T21:58:45.359Z,100064.50
2023-04-22T22:01:13.323Z,100063.09
2023-04-22T22:03:41.462Z,100058.81
2023-04-22T22:06:09.580Z,100072.25
2023-04-22T22:08:37.511Z,100067.97
2023-04-22T22:11:07.043Z,100069.88
2023-04-22T22:13:36.058Z,100074.50
2023-04-22T22:16:05.448Z,100071.94
2023-04-22T22:18:33.503Z,100073.81
2023-04-22T22:21:01.381Z,100075.63
2023-04-22T22:23:29.255Z,100081.81
2023-04-22T22:25:57.117Z,100081.75
2023-04-22T22:28:25.011Z,100091.53
2023-04-22T22:30:52.873Z,100089.75
2023-04-22T22:33:22.101Z,100091.63
2023-04-22T22:35:49.938Z,100094.38
2023-04-22T22:38:17.907Z,100095.31
2023-04-22T22:40:46.272Z,100099.88
2023-04-22T22:43:14.400Z,100099.72
2023-04-22T22:45:42.321Z,100105.13
2023-04-22T22:48:10.315Z,100095.50
2023-04-22T22:50:40.046Z,100108.75
2023-04-22T22:53:08.066Z,100105.22
2023-04-22T22:55:36.072Z,100109.50
2023-04-22T22:58:03.916Z,100110.19
2023-04-22T23:00:31.814Z,100109.16
2023-04-22T23:02:59.867Z,100108.13
2023-04-22T23:05:27.837Z,100108.78
2023-04-22T23:07:57.071Z,100107.72
2023-04-22T23:10:24.998Z,100098.69
2023-04-22T23:12:52.883Z,100096.78
2023-04-22T23:15:20.942Z,100100.97
2023-04-22T23:17:49.785Z,100097.25
2023-04-22T23:20:18.195Z,100099.75
2023-04-22T23:22:46.074Z,100101.56
2023-04-22T23:25:17.376Z,100101.75
2023-04-22T23:27:45.419Z,100101.84
2023-04-22T23:30:14.136Z,100095.09
2023-04-22T23:32:42.241Z,100094.13
2023-04-22T23:35:11.595Z,100096.91
2023-04-22T23:37:39.662Z,100098.81
2023-04-22T23:40:09.237Z,100093.47
2023-04-22T23:42:40.893Z,100094.50
2023-04-22T23:45:10.130Z,100104.41
2023-04-22T23:47:38.097Z,100100.22
2023-04-22T23:50:06.826Z,100108.41
2023-04-22T23:52:41.145Z,100106.84
2023-04-22T23:55:10.478Z,100110.44
2023-04-22T23:57:40.672Z,100105.97
